createdAt,value
2019-03-24T09:22:55.353Z,103.53
2019-03-24T09:25:37.160Z,91.27
2019-03-24T09:28:18.072Z,95.60
2019-03-24T09:30:58.721Z,97.27
2019-03-24T09:36:38.637Z,107.67
2019-03-24T09:45:03.782Z,90.77
2019-03-24T09:47:44.397Z,78.33
2019-03-24T09:50:25.076Z,84.37
2019-03-24T09:53:05.767Z,84.43
2019-03-24T09:55:46.437Z,83.90
2019-03-24T09:58:27.084Z,92.70
2019-03-24T10:01:08.195Z,84.23
2019-03-24T10:03:38.086Z,81.10
2019-03-24T10:06:26.808Z,71.40
2019-03-24T10:09:15.490Z,68.93
2019-03-24T10:12:04.169Z,84.80
2019-03-24T10:14:53.176Z,70.27
2019-03-24T10:17:41.830Z,77.50
2019-03-24T10:20:30.967Z,67.03
2019-03-24T10:23:19.639Z,77.73
2019-03-24T10:26:08.309Z,73.53
2019-03-24T10:28:57.090Z,63.00
2019-03-24T10:31:45.788Z,67.53
2019-03-24T10:34:34.453Z,56.30
2019-03-24T10:37:23.121Z,58.50
2019-03-24T10:40:11.841Z,58.27
2019-03-24T10:43:01.102Z,52.73
2019-03-24T10:45:49.970Z,49.80
2019-03-24T10:48:33.802Z,61.23
2019-03-24T10:51:13.477Z,47.23
2019-03-24T10:53:54.516Z,49.50
2019-03-24T10:56:37.070Z,49.13
2019-03-24T10:59:18.058Z,54.37
2019-03-24T11:01:59.157Z,60.83
2019-03-24T11:04:40.554Z,45.97
2019-03-24T11:10:20.129Z,47.03
2019-03-24T11:13:01.377Z,43.07
2019-03-24T11:15:42.645Z,36.60
2019-03-24T11:18:23.313Z,47.50
2019-03-24T11:21:04.357Z,39.43
2019-03-24T11:23:45.766Z,35.57
2019-03-24T11:26:27.259Z,33.67
2019-03-24T11:29:08.375Z,32.27
2019-03-24T11:31:49.545Z,34.30
2019-03-24T11:34:29.294Z,30.93
2019-03-24T11:37:17.986Z,28.60
2019-03-24T11:40:07.000Z,30.40
2019-03-24T11:42:48.079Z,31.93
2019-03-24T11:45:28.735Z,26.63
2019-03-24T11:48:09.825Z,27.27
2019-03-24T11:50:51.327Z,19.50
2019-03-24T11:53:32.753Z,10.17
2019-03-24T11:56:13.867Z,20.50
2019-03-24T11:58:55.019Z,16.43
2019-03-24T12:01:38.399Z,19.57
2019-03-24T12:04:22.813Z,20.70
2019-03-24T12:07:03.773Z,14.20
2019-03-24T12:09:44.894Z,17.40
2019-03-24T12:12:26.419Z,18.73
2019-03-24T12:15:07.508Z,17.23
2019-03-24T12:17:48.955Z,11.30
2019-03-24T12:20:30.276Z,16.77
2019-03-24T12:23:11.735Z,14.07
2019-03-24T12:25:52.965Z,16.10
2019-03-24T12:28:34.388Z,18.10
2019-03-24T12:31:15.879Z,16.87
2019-03-24T12:33:57.136Z,15.27
2019-03-24T12:36:38.519Z,16.90
2019-03-24T12:39:19.867Z,21.13
2019-03-24T12:42:01.118Z,16.37
2019-03-24T12:44:41.862Z,14.70
2019-03-24T12:47:22.569Z,27.47
2019-03-24T12:50:09.027Z,11.80
2019-03-24T12:52:45.833Z,14.40
2019-03-24T12:55:26.452Z,12.97
2019-03-24T12:58:07.604Z,15.53
2019-03-24T13:00:48.476Z,17.33
2019-03-24T13:03:29.899Z,12.97
2019-03-24T13:06:11.436Z,14.47
2019-03-24T13:08:52.692Z,13.23
2019-03-24T13:11:23.047Z,13.90
2019-03-24T13:14:11.816Z,11.80
2019-03-24T13:17:00.694Z,18.70
2019-03-24T13:19:49.441Z,12.50
2019-03-24T13:22:38.209Z,22.57
2019-03-24T13:25:26.940Z,17.00
2019-03-24T13:28:15.855Z,17.33
2019-03-24T13:31:04.548Z,13.43
2019-03-24T13:33:53.271Z,17.37
2019-03-24T13:36:41.926Z,10.87
2019-03-24T13:39:31.307Z,13.13
2019-03-24T13:42:20.273Z,16.73
2019-03-24T13:44:50.304Z,17.37
2019-03-24T13:47:38.992Z,11.90
2019-03-24T13:50:31.679Z,9.17
2019-03-24T13:53:18.164Z,13.73
2019-03-24T13:56:07.001Z,12.73
2019-03-24T13:58:55.762Z,11.87
2019-03-24T14:01:44.650Z,16.33
2019-03-24T14:04:33.321Z,14.57
2019-03-24T14:07:22.269Z,16.80
2019-03-24T14:10:10.963Z,10.27
2019-03-24T14:12:59.614Z,14.40
2019-03-24T14:15:48.332Z,10.17
2019-03-24T14:18:37.431Z,11.67
2019-03-24T14:21:26.517Z,9.93
2019-03-24T14:24:15.246Z,9.13
2019-03-24T14:27:03.961Z,11.00
2019-03-24T14:29:52.685Z,10.37
2019-03-24T14:32:41.401Z,8.17
2019-03-24T14:35:30.368Z,9.67
2019-03-24T14:38:19.122Z,13.30
2019-03-24T14:41:10.120Z,11.17
2019-03-24T14:43:51.089Z,8.07
2019-03-24T14:46:32.469Z,9.00
2019-03-24T14:49:13.842Z,14.70
2019-03-24T14:51:55.053Z,8.23
2019-03-24T14:54:36.301Z,8.27
2019-03-24T14:57:17.849Z,11.40
2019-03-24T14:59:59.035Z,8.50
2019-03-24T15:02:40.959Z,13.00
2019-03-24T15:05:22.560Z,11.83
2019-03-24T15:08:03.809Z,12.80
2019-03-24T15:10:45.270Z,7.23
2019-03-24T15:13:26.839Z,10.57
2019-03-24T15:16:07.997Z,10.93
2019-03-24T15:18:49.452Z,10.20
2019-03-24T15:21:30.733Z,8.37
2019-03-24T15:24:12.074Z,10.90
2019-03-24T15:26:53.087Z,5.73
2019-03-24T15:29:34.447Z,10.63
2019-03-24T15:32:16.112Z,10.57
2019-03-24T15:34:57.401Z,7.00
2019-03-24T15:37:39.986Z,8.80
2019-03-24T15:40:20.731Z,6.53
2019-03-24T15:43:02.149Z,5.17
2019-03-24T15:45:43.512Z,8.07
2019-03-24T15:48:24.880Z,10.40
2019-03-24T15:51:16.298Z,5.83
2019-03-24T15:53:49.390Z,7.07
2019-03-24T15:56:30.670Z,4.37
2019-03-24T15:59:12.102Z,9.40
2019-03-24T16:01:42.051Z,8.70
2019-03-24T16:04:30.806Z,8.43
2019-03-24T16:07:19.523Z,6.73
2019-03-24T16:10:08.579Z,5.40
2019-03-24T16:12:57.318Z,7.00
2019-03-24T16:15:46.258Z,4.80
2019-03-24T16:18:34.959Z,8.10
2019-03-24T16:21:28.089Z,6.87
2019-03-24T16:23:55.799Z,12.27
2019-03-24T16:26:44.492Z,8.90
2019-03-24T16:29:33.233Z,3.90
2019-03-24T16:32:22.247Z,8.83
2019-03-24T16:35:11.054Z,15.10
2019-03-24T16:38:14.253Z,9.23
2019-03-24T16:40:52.702Z,8.40
2019-03-24T16:43:34.058Z,8.07
2019-03-24T16:46:14.693Z,7.33
2019-03-24T16:48:56.237Z,9.40
2019-03-24T16:51:39.092Z,4.40
2019-03-24T16:54:20.067Z,13.23
2019-03-24T16:57:01.594Z,6.03
2019-03-24T16:59:42.978Z,7.57
2019-03-24T17:02:23.821Z,12.07
2019-03-24T17:05:05.484Z,9.60
2019-03-24T17:07:46.548Z,7.80
2019-03-24T17:10:27.697Z,21.10
2019-03-24T17:13:08.341Z,8.07
2019-03-24T17:15:49.025Z,5.63
2019-03-24T17:18:28.793Z,6.33
2019-03-24T17:21:17.494Z,9.50
2019-03-24T17:24:06.172Z,7.33
2019-03-24T17:26:55.952Z,8.77
2019-03-24T17:29:44.625Z,5.80
2019-03-24T17:32:33.348Z,16.50
2019-03-24T17:35:22.059Z,6.20
2019-03-24T17:41:20.130Z,9.40
2019-03-24T17:44:03.365Z,10.17
2019-03-24T17:46:43.295Z,5.50
2019-03-24T17:49:24.122Z,7.00
2019-03-24T17:52:08.281Z,5.30
2019-03-24T17:54:49.658Z,5.03
2019-03-24T17:57:30.783Z,7.00
2019-03-24T18:00:12.322Z,10.57
2019-03-24T18:02:52.995Z,3.60
2019-03-24T18:05:34.486Z,4.90
2019-03-24T18:08:15.873Z,5.60
2019-03-24T18:10:56.867Z,6.27
2019-03-24T18:13:37.651Z,3.37
2019-03-24T18:16:18.751Z,6.27
2019-03-24T18:18:59.878Z,8.40
2019-03-24T18:21:40.782Z,15.13
2019-03-24T18:24:21.750Z,11.30
2019-03-24T18:27:03.153Z,4.40
2019-03-24T18:29:44.387Z,4.27
2019-03-24T18:32:25.645Z,4.37
2019-03-24T18:35:06.562Z,6.20
2019-03-24T18:37:47.759Z,3.70
2019-03-24T18:40:29.100Z,11.53
2019-03-24T18:43:09.939Z,7.43
2019-03-24T18:45:50.922Z,4.63
2019-03-24T18:48:33.128Z,4.40
2019-03-24T18:51:11.314Z,5.23
2019-03-24T18:54:00.092Z,6.67
2019-03-24T18:56:30.149Z,6.27
2019-03-24T18:59:30.982Z,7.50
2019-03-24T19:02:09.379Z,4.70
2019-03-24T19:04:58.675Z,8.87
2019-03-24T19:07:47.857Z,11.50
2019-03-24T19:10:36.618Z,5.77
2019-03-24T19:13:25.351Z,5.40
2019-03-24T19:16:14.181Z,6.63
2019-03-24T19:19:02.991Z,4.70
2019-03-24T19:21:51.758Z,10.00
2019-03-24T19:24:40.629Z,10.43
2019-03-24T19:27:29.319Z,4.70
2019-03-24T19:33:33.145Z,8.07
2019-03-24T19:37:04.691Z,9.23
2019-03-24T19:39:41.033Z,3.67
2019-03-24T19:42:29.828Z,8.77
2019-03-24T19:45:14.480Z,5.03
2019-03-24T19:47:55.322Z,8.80
2019-03-24T19:50:36.755Z,3.00
2019-03-24T19:53:19.104Z,5.80
2019-03-24T19:55:49.278Z,5.13
2019-03-24T19:58:39.220Z,6.60
2019-03-24T20:01:28.976Z,10.43
2019-03-24T20:04:17.667Z,4.70
2019-03-24T20:07:06.668Z,6.60
2019-03-24T20:09:57.703Z,6.40
2019-03-24T20:12:46.575Z,5.90
2019-03-24T20:15:36.063Z,13.13
2019-03-24T20:18:25.275Z,9.70
2019-03-24T20:21:14.083Z,8.67
2019-03-24T20:24:02.902Z,6.83
2019-03-24T20:26:51.688Z,8.80
2019-03-24T20:29:40.387Z,7.90
2019-03-24T20:32:10.551Z,9.10
2019-03-24T20:34:41.093Z,12.30
2019-03-24T20:37:30.066Z,12.30
2019-03-24T20:40:27.021Z,4.97
2019-03-24T20:43:08.029Z,9.00
2019-03-24T20:45:49.315Z,9.00
2019-03-24T20:48:30.281Z,9.93
2019-03-24T20:51:11.725Z,9.70
2019-03-24T20:53:52.740Z,6.37
2019-03-24T20:56:34.097Z,11.23
2019-03-24T20:59:15.479Z,10.63
2019-03-24T21:01:56.800Z,11.20
2019-03-24T21:04:38.132Z,9.27
2019-03-24T21:07:21.142Z,14.83
2019-03-24T21:10:01.878Z,8.97
2019-03-24T21:12:43.167Z,12.13
2019-03-24T21:15:23.974Z,6.40
2019-03-24T21:18:05.347Z,7.30
2019-03-24T21:20:46.129Z,4.13
2019-03-24T21:23:29.732Z,10.07
2019-03-24T21:26:11.168Z,4.77
2019-03-24T21:28:52.449Z,7.27
2019-03-24T21:31:34.121Z,9.10
2019-03-24T21:36:56.685Z,10.47
2019-03-24T21:39:27.089Z,12.57
2019-03-24T21:41:57.258Z,5.57
2019-03-24T21:44:45.992Z,6.93
2019-03-24T21:47:35.048Z,6.73
2019-03-24T21:50:23.965Z,12.27
2019-03-24T21:53:12.884Z,8.07
2019-03-24T21:56:01.601Z,11.90
2019-03-24T21:58:50.234Z,9.20
2019-03-24T22:01:38.897Z,8.60
2019-03-24T22:04:27.551Z,8.23
2019-03-24T22:07:16.236Z,6.50
2019-03-24T22:10:05.554Z,5.70
2019-03-24T22:12:54.244Z,9.43
2019-03-24T22:15:42.930Z,11.83
2019-03-24T22:18:31.629Z,11.07
2019-03-24T22:21:20.666Z,7.50
2019-03-24T22:24:09.380Z,8.00
2019-03-24T22:26:58.139Z,5.20
2019-03-24T22:29:47.240Z,5.90
2019-03-24T22:32:50.451Z,12.67
2019-03-24T22:35:26.894Z,8.50
2019-03-24T22:38:15.558Z,7.07
2019-03-24T22:40:56.989Z,3.33
2019-03-24T22:43:38.459Z,10.60
2019-03-24T22:46:19.658Z,7.90
2019-03-24T22:49:00.655Z,4.70
2019-03-24T22:51:41.881Z,10.07
2019-03-24T22:54:23.012Z,5.20
2019-03-24T22:57:04.386Z,4.77
2019-03-24T22:59:45.713Z,8.97
2019-03-24T23:02:26.680Z,9.37
2019-03-24T23:05:08.011Z,6.00
2019-03-24T23:07:37.948Z,5.20
2019-03-24T23:10:27.052Z,12.40
2019-03-24T23:13:15.698Z,8.50
2019-03-24T23:16:04.394Z,9.60
2019-03-24T23:18:53.445Z,5.50
2019-03-24T23:21:42.212Z,12.20
2019-03-24T23:24:30.934Z,6.97
2019-03-24T23:27:19.645Z,9.53
2019-03-24T23:30:28.828Z,10.03
2019-03-24T23:33:17.533Z,6.50
2019-03-24T23:36:06.206Z,12.83
2019-03-24T23:38:36.063Z,5.63
2019-03-24T23:41:17.358Z,11.33
2019-03-24T23:43:47.662Z,12.17
2019-03-24T23:46:36.670Z,5.40
2019-03-24T23:49:25.615Z,13.10
2019-03-24T23:52:14.235Z,17.33
2019-03-24T23:55:02.923Z,8.77
2019-03-24T23:57:32.939Z,5.63
